Detalii statie AGRICHIM STEFAN CEL MARE [0000198F]

Toti senzorii

Date Temperatura solului [C]Precipitatii [mm]Voltaj baterie [mV]HC Air temperature [C]HC Relative humidity [%]Punctul de roua [C]
medieminmaxsumaultimamedieminmaxmediemediemin
2020-06-02 07:00:00 16.5 16.5 16.8 0 6826 11.9 11.55 12.16 0 0 0
2020-06-02 08:00:00 16.3 16.2 16.4 0 6914 12.47 12.21 12.67 0 0 0
2020-06-02 09:00:00 16.2 16.1 16.3 0 7070 12.88 12.52 13.36 0 0 0
2020-06-02 10:00:00 16.2 16.1 16.3 0 7236 13.79 13.27 14.17 0 0 0
2020-06-02 11:00:00 16.2 16.2 16.4 0 7236 14.08 13.89 14.22 0 0 0
2020-06-02 12:00:00 16.4 16.3 16.6 0.4 7236 12.86 12.47 13.5 0 0 0
2020-06-02 13:00:00 16.6 16.6 16.7 0.2 7254 13.75 12.72 14.54 0 0 0
2020-06-02 14:00:00 16.8 16.6 17 0 7236 14.17 13.03 15.19 0 0 0
2020-06-02 15:00:00 17.1 17 17.2 0.6 7158 12.13 11.53 12.57 0 0 0
2020-06-02 16:00:00 17.3 17.2 17.4 1 7186 11.6 11.19 11.94 0 0 0
2020-06-02 17:00:00 17.3 17.2 17.4 0 7236 11.93 11.58 12.48 0 0 0
2020-06-02 18:00:00 17.3 17.1 17.4 0 7158 13.17 12.56 13.63 0 0 0
2020-06-02 19:00:00 17.3 17.3 17.4 0 7236 13.66 13.56 13.85 0 0 0
2020-06-02 20:00:00 17.3 17.3 17.5 0 7040 13.37 13.21 13.69 0 0 0
2020-06-02 21:00:00 17.2 17 17.5 0 6982 12.46 11.14 13.38 0 0 0
2020-06-02 22:00:00 17 16.8 17.3 0 6952 10.49 9.88 10.97 0 0 0
2020-06-02 23:00:00 16.7 16.6 16.9 0 6914 9.38 9.04 9.98 0 0 0
2020-06-03 00:00:00 16.3 16.2 16.6 0 6894 9.07 8.79 9.49 0 0 0
2020-06-03 01:00:00 16.1 15.9 16.3 0 6854 8.46 8.1 9.18 0 0 0
2020-06-03 02:00:00 15.7 15.6 15.9 0 6854 8.58 8.16 8.94 0 0 0
2020-06-03 03:00:00 15.3 15.1 15.7 0 6834 8.27 8.11 8.55 0 0 0
2020-06-03 04:00:00 14.9 14.8 15.3 0 6834 8.5 8.15 8.74 0 0 0
2020-06-03 05:00:00 14.8 14.6 15 0 6826 7.7 7.16 8.47 0 0 0
2020-06-03 06:00:00 14.5 14.4 14.7 0 6816 7.08 6.8 7.34 0 0 0
2020-06-03 07:00:00 14.3 14.2 14.7 0 6826 7.99 7.71 8.21 0 0 0
2020-06-03 08:00:00 14.1 14 14.3 0 6834 9.19 8.29 10.14 0 0 0
2020-06-03 09:00:00 13.9 13.8 14.1 0 6904 10.87 10.25 11.83 0 0 0
2020-06-03 10:00:00 13.9 13.9 14 0 7108 14.48 12.22 16.51 0 0 0
2020-06-03 11:00:00 13.9 13.9 14 0 7236 17.85 16.82 18.61 0 0 0
2020-06-03 12:00:00 14 13.9 14.2 0 7254 20.67 18.26 22.19 9.33 0
2020-06-03 13:00:00 14.7 14.3 15.4 0 7246 20.88 19.35 23.48 21.86 -2 -4.9
2020-06-03 14:00:00 16 15.5 16.4 0 7254 21.01 20.06 22.67 23.5 -0.9 -4.2
2020-06-03 15:00:00 16.8 16.6 17.3 0 7254 21.12 19.78 23.12 27.02 1 -1.2
2020-06-03 16:00:00 17.6 17.3 18 0 7236 23.6 22.42 24.87 24.89 2.1 0.9
2020-06-03 17:00:00 18.4 18 18.8 0 7158 21.81 20.69 23.4 28.73 2.5 1
2020-06-03 18:00:00 18.9 18.8 19.1 0 7118 21.68 21.21 22.2 25.18 0.7 0
2020-06-03 19:00:00 18.9 18.8 19.1 0 7216 21 20.71 21.49 25.33 0.1 -0.4
2020-06-03 20:00:00 18.7 18.6 18.9 0 6952 20.1 19.13 20.73 24.89 -0.8 -2.6
2020-06-03 21:00:00 18.3 18.2 18.5 0 6894 17.17 15.79 18.96 32.1 0.1 -0.8
2020-06-03 22:00:00 18 17.9 18.2 0 6826 14.86 13.97 15.57 41.87 1.7 0
2020-06-03 23:00:00 17.5 17.3 17.8 0 6806 13.25 12.69 13.87 51.67 3.3 2.2
2020-06-04 00:00:00 17.2 17.1 17.5 0 6776 13.88 13.22 14.25 48.47 2.2 -14.7
2020-06-04 01:00:00 16.8 16.6 17 0 6786 13.42 12.89 14.02 0.23 0
2020-06-04 02:00:00 16.6 16.5 16.7 0 6796 12.54 12.31 12.74 0 0 0
2020-06-04 03:00:00 16.3 16.2 16.4 0 6786 11.56 10.7 12.29 0 0 0
2020-06-04 04:00:00 16 16 16.2 0 6786 10.21 9.63 10.74 0 0 0
2020-06-04 05:00:00 15.7 15.5 15.9 0 6776 9.75 9.42 9.96 0 0 0
2020-06-04 06:00:00 15.4 15.1 15.6 0 6776 9.54 9.23 9.75 0 0 0